createdAt,value
2018-11-04T00:00:17.268Z,2.79
2018-11-04T00:01:17.254Z,2.72
2018-11-04T00:02:17.239Z,2.67
2018-11-04T00:03:17.223Z,2.67
2018-11-04T00:04:17.209Z,2.71
2018-11-04T00:05:17.196Z,2.75
2018-11-04T00:06:17.184Z,2.71
2018-11-04T00:07:17.370Z,2.79
2018-11-04T00:08:17.155Z,2.72
2018-11-04T00:09:17.141Z,2.75
2018-11-04T00:10:17.128Z,2.71
2018-11-04T00:11:17.115Z,2.71
2018-11-04T00:12:17.099Z,2.68
2018-11-04T00:13:17.248Z,2.69
2018-11-04T00:14:17.072Z,2.69
2018-11-04T00:15:17.057Z,2.69
2018-11-04T00:16:17.043Z,2.61
2018-11-04T00:17:17.030Z,2.71
2018-11-04T00:18:17.017Z,2.65
2018-11-04T00:19:17.000Z,2.67
2018-11-04T00:20:17.036Z,2.74
2018-11-04T00:21:16.978Z,2.74
2018-11-04T00:22:16.961Z,2.79
2018-11-04T00:23:16.945Z,2.74
2018-11-04T00:24:16.931Z,2.72
2018-11-04T00:25:16.917Z,2.75
2018-11-04T00:26:16.903Z,2.74
2018-11-04T00:27:16.925Z,2.80
2018-11-04T00:28:16.874Z,2.77
2018-11-04T00:29:16.859Z,2.74
2018-11-04T00:30:16.845Z,2.79
2018-11-04T00:31:16.830Z,2.74
2018-11-04T00:32:16.816Z,2.65
2018-11-04T00:33:16.801Z,2.79
2018-11-04T00:34:16.794Z,2.75
2018-11-04T00:35:16.775Z,2.65
2018-11-04T00:36:16.759Z,2.75
2018-11-04T00:37:16.746Z,2.75
2018-11-04T00:38:16.735Z,2.82
2018-11-04T00:39:16.716Z,2.72
2018-11-04T00:40:16.703Z,2.77
2018-11-04T00:41:16.689Z,2.83
2018-11-04T00:42:16.674Z,2.90
2018-11-04T00:43:16.760Z,2.90
2018-11-04T00:44:16.647Z,2.98
2018-11-04T00:45:16.705Z,3.01
2018-11-04T00:46:16.618Z,3.00
2018-11-04T00:47:16.603Z,3.01
2018-11-04T00:48:16.591Z,3.00
2018-11-04T00:49:16.575Z,2.93
2018-11-04T00:50:16.566Z,2.86
2018-11-04T00:51:16.546Z,2.86
2018-11-04T00:52:16.534Z,2.86
2018-11-04T00:53:16.518Z,2.87
2018-11-04T00:54:16.506Z,2.86
2018-11-04T00:55:16.492Z,2.74
2018-11-04T00:56:16.479Z,2.79
2018-11-04T00:57:16.464Z,2.82
2018-11-04T00:58:16.451Z,2.80
2018-11-04T00:59:16.436Z,2.77
2018-11-04T01:00:16.422Z,2.69
2018-11-04T01:01:16.409Z,2.71
2018-11-04T01:02:16.394Z,2.75
2018-11-04T01:03:16.381Z,2.80
2018-11-04T01:04:16.367Z,2.71
2018-11-04T01:05:16.354Z,2.74
2018-11-04T01:06:16.340Z,2.80
2018-11-04T01:07:16.324Z,2.80
2018-11-04T01:08:16.310Z,2.72
2018-11-04T01:09:16.492Z,2.79
2018-11-04T01:10:16.283Z,2.87
2018-11-04T01:11:16.272Z,2.86
2018-11-04T01:12:16.258Z,2.80
2018-11-04T01:13:16.243Z,2.86
2018-11-04T01:14:16.228Z,2.89
2018-11-04T01:15:16.416Z,2.86
2018-11-04T01:16:16.200Z,2.82
2018-11-04T01:17:16.187Z,2.86
2018-11-04T01:18:16.171Z,2.92
2018-11-04T01:19:16.158Z,2.86
2018-11-04T01:20:16.144Z,2.83
2018-11-04T01:21:16.216Z,2.92
2018-11-04T01:22:16.117Z,2.95
2018-11-04T01:23:16.104Z,2.87
2018-11-04T01:24:16.121Z,2.86
2018-11-04T01:25:16.081Z,2.77
2018-11-04T01:26:16.063Z,2.82
2018-11-04T01:27:16.049Z,2.80
2018-11-04T01:28:16.035Z,2.75
2018-11-04T01:29:16.083Z,2.80
2018-11-04T01:30:16.098Z,2.75
2018-11-04T01:31:15.993Z,2.71
2018-11-04T01:32:15.981Z,2.79
2018-11-04T01:33:15.972Z,2.67
2018-11-04T01:34:16.159Z,2.74
2018-11-04T01:35:15.941Z,2.80
2018-11-04T01:36:15.928Z,2.74
2018-11-04T01:37:15.912Z,2.77
2018-11-04T01:38:15.899Z,2.80
2018-11-04T01:39:16.135Z,2.77
2018-11-04T01:40:15.875Z,2.68
2018-11-04T01:41:15.857Z,2.74
2018-11-04T01:42:15.843Z,2.75
2018-11-04T01:43:15.828Z,2.77
2018-11-04T01:44:15.814Z,2.74
2018-11-04T01:45:15.800Z,2.77
2018-11-04T01:46:15.787Z,2.83
2018-11-04T01:47:15.772Z,2.80
2018-11-04T01:48:15.758Z,2.77
2018-11-04T01:49:15.745Z,2.82
2018-11-04T01:50:15.731Z,2.77
2018-11-04T01:51:15.718Z,2.86
2018-11-04T01:52:15.702Z,2.87
2018-11-04T01:53:15.689Z,2.85
2018-11-04T01:54:15.680Z,2.92
2018-11-04T01:55:15.661Z,2.83
2018-11-04T01:56:15.645Z,2.85
2018-11-04T01:57:15.632Z,2.85
2018-11-04T01:58:15.617Z,2.80
2018-11-04T01:59:15.603Z,2.85
2018-11-04T02:00:15.587Z,2.80
2018-11-04T02:01:15.579Z,2.79
2018-11-04T02:02:15.561Z,2.75
2018-11-04T02:03:15.546Z,2.77
2018-11-04T02:04:15.534Z,2.86
2018-11-04T02:05:15.519Z,2.86
2018-11-04T02:06:15.504Z,2.80
2018-11-04T02:07:15.489Z,2.90
2018-11-04T02:08:15.476Z,2.87
2018-11-04T02:09:15.461Z,2.87
2018-11-04T02:10:15.698Z,2.85
2018-11-04T02:11:15.436Z,2.97
2018-11-04T02:12:15.421Z,2.95
2018-11-04T02:13:15.405Z,2.93
2018-11-04T02:14:15.392Z,2.93
2018-11-04T02:15:15.483Z,2.93
2018-11-04T02:16:15.367Z,3.00
2018-11-04T02:17:15.348Z,3.03
2018-11-04T02:18:15.335Z,3.00
2018-11-04T02:19:15.321Z,2.98
2018-11-04T02:20:15.307Z,2.98
2018-11-04T02:21:15.293Z,2.92
2018-11-04T02:22:15.279Z,2.92
2018-11-04T02:23:15.265Z,2.90
2018-11-04T02:24:15.250Z,2.86
2018-11-04T02:25:15.236Z,2.82
2018-11-04T02:26:15.224Z,2.79
2018-11-04T02:27:15.207Z,2.74
2018-11-04T02:28:15.196Z,2.74
2018-11-04T02:29:15.187Z,2.72
2018-11-04T02:30:15.169Z,2.77
2018-11-04T02:31:15.154Z,2.75
2018-11-04T02:32:15.139Z,2.75
2018-11-04T02:33:15.130Z,2.77
2018-11-04T02:34:15.113Z,2.79
2018-11-04T02:35:15.103Z,2.80
2018-11-04T02:36:15.085Z,2.86
2018-11-04T02:37:15.071Z,2.80
2018-11-04T02:38:15.058Z,2.82
2018-11-04T02:39:15.043Z,2.85
2018-11-04T02:40:15.036Z,3.00
2018-11-04T02:41:15.116Z,2.97
2018-11-04T02:42:15.002Z,3.05
2018-11-04T02:43:14.988Z,2.95
2018-11-04T02:44:14.974Z,2.93
2018-11-04T02:45:14.961Z,2.85
2018-11-04T02:46:14.947Z,2.82
2018-11-04T02:47:14.933Z,2.89
2018-11-04T02:48:14.924Z,2.83
2018-11-04T02:49:14.906Z,2.77
2018-11-04T02:50:14.913Z,2.77
2018-11-04T02:51:14.878Z,2.77
2018-11-04T02:52:14.865Z,2.72
2018-11-04T02:53:14.856Z,2.71
2018-11-04T02:54:14.841Z,2.68
2018-11-04T02:55:14.823Z,2.79
2018-11-04T02:56:14.810Z,2.71
2018-11-04T02:57:14.797Z,2.69
2018-11-04T02:58:14.782Z,2.67
2018-11-04T02:59:14.768Z,2.71
2018-11-04T03:00:14.756Z,2.68
2018-11-04T03:01:14.742Z,2.64
2018-11-04T03:02:14.729Z,2.57
2018-11-04T03:03:14.712Z,2.50
2018-11-04T03:04:14.701Z,2.60
2018-11-04T03:05:14.692Z,2.43
2018-11-04T03:06:14.674Z,2.43
2018-11-04T03:07:14.660Z,2.33
2018-11-04T03:08:14.647Z,2.32
2018-11-04T03:09:14.633Z,2.31
2018-11-04T03:10:14.626Z,2.20
2018-11-04T03:11:14.610Z,2.29
2018-11-04T03:12:15.047Z,2.25
2018-11-04T03:13:14.581Z,2.25
2018-11-04T03:14:14.565Z,2.18
2018-11-04T03:15:14.556Z,2.17
2018-11-04T03:16:14.538Z,2.14
2018-11-04T03:17:14.528Z,2.14
2018-11-04T03:18:14.511Z,2.18
2018-11-04T03:19:14.496Z,2.08
2018-11-04T03:20:14.483Z,2.08
2018-11-04T03:21:14.470Z,2.15
2018-11-04T03:22:14.657Z,2.10
2018-11-04T03:23:14.441Z,2.00
2018-11-04T03:24:14.432Z,2.00
2018-11-04T03:25:14.414Z,2.08
2018-11-04T03:26:14.423Z,2.00
2018-11-04T03:27:14.387Z,2.04
2018-11-04T03:28:14.374Z,2.17
2018-11-04T03:29:14.364Z,2.10
2018-11-04T03:30:14.351Z,2.17
2018-11-04T03:31:14.332Z,2.04
2018-11-04T03:32:14.318Z,2.04
2018-11-04T03:33:14.305Z,2.06
2018-11-04T03:34:14.292Z,2.04
2018-11-04T03:35:14.277Z,2.04
2018-11-04T03:36:14.264Z,2.06
2018-11-04T03:37:14.251Z,2.07
2018-11-04T03:38:14.237Z,2.13
2018-11-04T03:39:14.223Z,2.17
2018-11-04T03:40:14.208Z,2.11
2018-11-04T03:41:14.197Z,2.04
2018-11-04T03:42:14.182Z,2.04
2018-11-04T03:43:14.167Z,2.04
2018-11-04T03:44:14.154Z,2.04
2018-11-04T03:45:14.140Z,2.04
2018-11-04T03:46:14.127Z,2.02
2018-11-04T03:47:14.119Z,2.04
2018-11-04T03:48:14.099Z,1.97
2018-11-04T03:49:14.083Z,2.04
2018-11-04T03:50:14.072Z,2.08
2018-11-04T03:51:14.058Z,1.91
2018-11-04T03:52:14.043Z,2.02
2018-11-04T03:53:14.029Z,1.99
2018-11-04T03:54:14.016Z,2.00
2018-11-04T03:55:14.001Z,2.06
2018-11-04T03:56:13.987Z,2.00
2018-11-04T03:57:13.974Z,2.02
2018-11-04T03:58:13.960Z,2.02
2018-11-04T03:59:13.946Z,2.02
2018-11-04T04:00:13.933Z,2.02
2018-11-04T04:01:13.931Z,1.97
2018-11-04T04:02:13.905Z,1.89
2018-11-04T04:03:13.890Z,1.94
2018-11-04T04:04:13.876Z,1.88
2018-11-04T04:05:13.863Z,1.77
2018-11-04T04:06:14.055Z,1.78
2018-11-04T04:07:13.835Z,1.92
2018-11-04T04:08:13.822Z,1.84
2018-11-04T04:09:13.808Z,1.76
2018-11-04T04:10:13.794Z,1.77
2018-11-04T04:11:13.779Z,1.92
2018-11-04T04:12:13.770Z,1.84
2018-11-04T04:13:13.852Z,1.77
2018-11-04T04:14:13.740Z,1.87
2018-11-04T04:15:13.724Z,1.74
2018-11-04T04:16:13.710Z,1.76
2018-11-04T04:17:13.696Z,1.76
2018-11-04T04:18:13.687Z,1.68
2018-11-04T04:19:13.671Z,1.56
2018-11-04T04:20:13.656Z,1.56
2018-11-04T04:21:13.642Z,1.67
2018-11-04T04:22:13.628Z,1.56
2018-11-04T04:23:13.614Z,1.58
2018-11-04T04:24:13.604Z,1.62
2018-11-04T04:25:13.587Z,1.58
2018-11-04T04:26:13.573Z,1.58
2018-11-04T04:27:13.558Z,1.56
2018-11-04T04:28:13.545Z,1.53
2018-11-04T04:29:13.531Z,1.56
2018-11-04T04:30:13.520Z,1.59
2018-11-04T04:31:13.503Z,1.55
2018-11-04T04:32:13.493Z,1.66
2018-11-04T04:33:13.476Z,1.74
2018-11-04T04:34:13.462Z,1.74
2018-11-04T04:35:13.448Z,1.74
2018-11-04T04:36:13.435Z,1.81
2018-11-04T04:37:13.421Z,1.73
2018-11-04T04:38:13.408Z,1.74
2018-11-04T04:39:13.392Z,1.76
2018-11-04T04:40:13.379Z,1.85
2018-11-04T04:41:13.365Z,1.85
2018-11-04T04:42:13.351Z,1.85
2018-11-04T04:43:13.337Z,1.78
2018-11-04T04:44:13.324Z,1.70
2018-11-04T04:45:13.311Z,1.74
2018-11-04T04:46:13.297Z,1.76
2018-11-04T04:47:13.282Z,1.85
2018-11-04T04:48:13.266Z,1.78
2018-11-04T04:49:13.253Z,1.80
2018-11-04T04:50:13.243Z,1.81
2018-11-04T04:51:13.226Z,1.84
2018-11-04T04:52:13.212Z,1.84
2018-11-04T04:53:13.199Z,1.81
2018-11-04T04:54:13.190Z,1.84
2018-11-04T04:55:13.171Z,1.84
2018-11-04T04:56:13.158Z,1.85
2018-11-04T04:57:13.141Z,1.77
2018-11-04T04:58:13.127Z,1.74
2018-11-04T04:59:13.113Z,1.73
2018-11-04T05:01:13.086Z,1.87
2018-11-04T05:02:13.069Z,1.85
2018-11-04T05:03:13.055Z,1.78
2018-11-04T05:04:13.040Z,1.74
2018-11-04T05:05:13.027Z,1.80
2018-11-04T05:06:13.012Z,1.78
2018-11-04T05:07:12.997Z,1.70
2018-11-04T05:08:12.982Z,1.80
2018-11-04T05:09:12.969Z,1.77
2018-11-04T05:10:12.954Z,1.87
2018-11-04T05:11:12.937Z,1.91
2018-11-04T05:12:12.924Z,1.87
2018-11-04T05:13:12.917Z,1.87
2018-11-04T05:14:12.995Z,1.88
2018-11-04T05:15:12.882Z,1.80
2018-11-04T05:16:12.866Z,1.89
2018-11-04T05:17:12.850Z,1.88
2018-11-04T05:18:12.836Z,1.97
2018-11-04T05:19:12.835Z,1.94
2018-11-04T05:20:12.807Z,1.99
2018-11-04T05:21:12.793Z,1.87
2018-11-04T05:22:12.778Z,1.94
2018-11-04T05:23:12.766Z,1.88
2018-11-04T05:24:12.749Z,1.89
2018-11-04T05:25:12.735Z,1.84
2018-11-04T05:26:12.721Z,1.81
2018-11-04T05:27:12.706Z,1.84
2018-11-04T05:28:12.691Z,1.70
2018-11-04T05:29:12.677Z,1.78
2018-11-04T05:30:12.663Z,1.74
2018-11-04T05:31:12.649Z,1.73
2018-11-04T05:32:12.634Z,1.71
2018-11-04T05:33:12.622Z,1.71
2018-11-04T05:34:12.610Z,1.74
2018-11-04T05:35:12.592Z,1.70
2018-11-04T05:36:12.578Z,1.60
2018-11-04T05:37:12.566Z,1.59
2018-11-04T05:38:12.606Z,1.70
2018-11-04T05:39:12.536Z,1.73
2018-11-04T05:40:12.526Z,1.63
2018-11-04T05:41:12.509Z,1.66
2018-11-04T05:42:12.496Z,1.60
2018-11-04T05:43:12.480Z,1.60
2018-11-04T05:44:12.469Z,1.59
2018-11-04T05:45:12.453Z,1.58
2018-11-04T05:46:12.439Z,1.56
2018-11-04T05:47:12.427Z,1.55
2018-11-04T05:48:12.412Z,1.50
2018-11-04T05:49:12.402Z,1.49
2018-11-04T05:50:12.384Z,1.56
2018-11-04T05:51:12.371Z,1.49
2018-11-04T05:52:12.557Z,1.56
2018-11-04T05:53:12.345Z,1.55
2018-11-04T05:54:12.331Z,1.58
2018-11-04T05:55:12.314Z,1.56
2018-11-04T05:56:12.300Z,1.55
2018-11-04T05:57:12.286Z,1.56
2018-11-04T05:58:12.272Z,1.55
2018-11-04T05:59:12.257Z,1.60
2018-11-04T06:00:12.247Z,1.60
2018-11-04T06:01:12.231Z,1.60
2018-11-04T06:02:12.216Z,1.58
2018-11-04T06:03:12.200Z,1.56
2018-11-04T06:04:12.188Z,1.56
2018-11-04T06:05:12.174Z,1.53
2018-11-04T06:06:12.160Z,1.50
2018-11-04T06:07:12.144Z,1.49
2018-11-04T06:08:12.131Z,1.45
2018-11-04T06:09:12.118Z,1.52
2018-11-04T06:10:12.104Z,1.49
2018-11-04T06:11:12.092Z,1.38
2018-11-04T06:12:12.079Z,1.45
2018-11-04T06:13:12.062Z,1.34
2018-11-04T06:14:12.048Z,1.40
2018-11-04T06:15:12.036Z,1.32
2018-11-04T06:16:12.019Z,1.30
2018-11-04T06:17:12.006Z,1.20
2018-11-04T06:18:11.995Z,1.23
2018-11-04T06:19:11.979Z,1.22
2018-11-04T06:20:11.963Z,1.28
2018-11-04T06:21:11.950Z,1.30
2018-11-04T06:22:11.936Z,1.32
2018-11-04T06:23:11.921Z,1.22
2018-11-04T06:24:11.909Z,1.20
2018-11-04T06:25:11.903Z,1.17
2018-11-04T06:26:11.879Z,1.24
2018-11-04T06:27:11.864Z,1.23
2018-11-04T06:28:11.850Z,1.30
2018-11-04T06:29:11.837Z,1.24
2018-11-04T06:30:11.823Z,1.12
2018-11-04T06:31:11.808Z,1.13
2018-11-04T06:32:11.797Z,1.28
2018-11-04T06:33:11.779Z,1.28
2018-11-04T06:34:11.768Z,1.30
2018-11-04T06:35:11.751Z,1.23
2018-11-04T06:36:11.739Z,1.22
2018-11-04T06:37:11.724Z,1.26
2018-11-04T06:38:11.711Z,1.23
2018-11-04T06:39:11.697Z,1.14
2018-11-04T06:40:11.681Z,1.31
2018-11-04T06:41:11.771Z,1.23
2018-11-04T06:42:11.655Z,1.31
2018-11-04T06:43:11.640Z,1.35
2018-11-04T06:44:11.628Z,1.34
2018-11-04T06:45:11.625Z,1.38
2018-11-04T06:46:11.600Z,1.42
2018-11-04T06:47:11.712Z,1.42
2018-11-04T06:48:11.572Z,1.50
2018-11-04T06:49:11.556Z,1.52
2018-11-04T06:50:11.541Z,1.55
2018-11-04T06:51:11.526Z,1.58
2018-11-04T06:52:11.513Z,1.58
2018-11-04T06:53:11.498Z,1.60
2018-11-04T06:54:11.483Z,1.62
2018-11-04T06:55:11.474Z,1.53
2018-11-04T06:56:11.460Z,1.56
2018-11-04T06:57:11.441Z,1.55
2018-11-04T06:58:11.428Z,1.60
2018-11-04T06:59:11.415Z,1.59
2018-11-04T07:00:11.748Z,1.56
2018-11-04T07:01:11.382Z,1.58
2018-11-04T07:02:11.373Z,1.62
2018-11-04T07:03:11.357Z,1.66
2018-11-04T07:04:11.338Z,1.70
2018-11-04T07:05:11.323Z,1.74
2018-11-04T07:06:11.309Z,1.66
2018-11-04T07:07:11.295Z,1.78
2018-11-04T07:08:11.285Z,1.84
2018-11-04T07:09:11.369Z,1.87
2018-11-04T07:10:11.256Z,1.92
2018-11-04T07:11:11.439Z,2.00
2018-11-04T07:12:11.225Z,1.99
2018-11-04T07:13:11.210Z,2.15
2018-11-04T07:14:11.196Z,2.17
2018-11-04T07:15:11.185Z,2.26
2018-11-04T07:16:11.173Z,2.36
2018-11-04T07:17:11.156Z,2.32
2018-11-04T07:18:11.143Z,2.44
2018-11-04T07:19:11.127Z,2.49
2018-11-04T07:20:11.111Z,2.46
2018-11-04T07:21:11.100Z,2.65
2018-11-04T07:22:11.091Z,2.54
2018-11-04T07:23:11.069Z,2.69
2018-11-04T07:24:11.055Z,2.72
2018-11-04T07:25:11.041Z,2.75
2018-11-04T07:26:11.031Z,2.77
2018-11-04T07:27:11.014Z,2.85
2018-11-04T07:28:10.999Z,2.82
2018-11-04T07:29:10.986Z,3.04
2018-11-04T07:30:10.972Z,3.00
2018-11-04T07:31:10.962Z,3.05
2018-11-04T07:32:11.026Z,3.10
2018-11-04T07:33:10.931Z,3.13
2018-11-04T07:34:10.921Z,3.16
2018-11-04T07:35:10.903Z,3.28
2018-11-04T07:36:10.893Z,3.25
2018-11-04T07:37:10.881Z,3.26
2018-11-04T07:38:10.866Z,3.40
2018-11-04T07:39:10.852Z,3.42
2018-11-04T07:40:10.837Z,3.48
2018-11-04T07:41:10.830Z,3.48
2018-11-04T07:42:10.812Z,3.59
2018-11-04T07:43:10.797Z,3.58
2018-11-04T07:44:10.823Z,3.68
2018-11-04T07:45:10.783Z,3.68
2018-11-04T07:46:10.761Z,3.78
2018-11-04T07:47:10.748Z,3.84
2018-11-04T07:48:10.737Z,3.88
2018-11-04T07:49:10.724Z,4.01
2018-11-04T07:50:10.717Z,3.99
2018-11-04T07:51:10.700Z,4.02
2018-11-04T07:52:10.893Z,3.98
2018-11-04T07:53:10.683Z,3.98
2018-11-04T07:54:10.670Z,3.99
2018-11-04T07:55:10.651Z,4.04
2018-11-04T07:56:10.648Z,4.01
2018-11-04T07:57:10.627Z,4.06
2018-11-04T07:58:10.619Z,4.04
2018-11-04T07:59:10.609Z,4.17
2018-11-04T08:00:10.596Z,4.14
2018-11-04T08:01:10.587Z,4.12
2018-11-04T08:02:10.570Z,4.16
2018-11-04T08:03:10.561Z,4.17
2018-11-04T08:04:10.559Z,4.28
2018-11-04T08:05:10.540Z,4.32
2018-11-04T08:06:10.523Z,4.28
2018-11-04T08:07:10.510Z,4.31
2018-11-04T08:08:10.506Z,4.40
2018-11-04T08:09:10.487Z,4.40
2018-11-04T08:10:10.477Z,4.48
2018-11-04T08:11:10.466Z,4.67
2018-11-04T08:12:10.453Z,4.75
2018-11-04T08:13:10.442Z,4.74
2018-11-04T08:14:10.435Z,4.82
2018-11-04T08:15:10.424Z,4.87
2018-11-04T08:16:10.409Z,4.96
2018-11-04T08:17:10.398Z,5.10
2018-11-04T08:18:10.386Z,5.17
2018-11-04T08:19:10.375Z,5.29
2018-11-04T08:20:10.372Z,5.43
2018-11-04T08:21:10.358Z,5.59
2018-11-04T08:22:10.348Z,5.68
2018-11-04T08:23:10.335Z,5.76
2018-11-04T08:24:10.321Z,5.93
2018-11-04T08:25:10.316Z,6.01
2018-11-04T08:26:10.306Z,6.17
2018-11-04T08:27:10.288Z,6.28
2018-11-04T08:28:10.278Z,6.48
2018-11-04T08:29:10.270Z,6.62
2018-11-04T08:30:10.258Z,6.70
2018-11-04T08:31:10.247Z,6.81
2018-11-04T08:32:10.237Z,6.92
2018-11-04T08:33:10.231Z,6.97
2018-11-04T08:34:10.217Z,7.18
2018-11-04T08:35:10.210Z,7.35
2018-11-04T08:36:10.199Z,7.42
2018-11-04T08:37:10.189Z,7.63
2018-11-04T08:38:10.181Z,7.82
2018-11-04T08:39:10.168Z,7.97
2018-11-04T08:40:10.298Z,8.05
2018-11-04T08:41:10.148Z,8.16
2018-11-04T08:42:10.140Z,8.34
2018-11-04T08:43:10.130Z,8.36
2018-11-04T08:44:10.124Z,8.41
2018-11-04T08:45:10.312Z,8.46
2018-11-04T08:46:10.104Z,8.55
2018-11-04T08:47:10.095Z,8.51
2018-11-04T08:48:10.083Z,8.61
2018-11-04T08:49:10.078Z,8.79
2018-11-04T08:50:10.065Z,8.88
2018-11-04T08:51:10.054Z,8.92
2018-11-04T08:52:10.047Z,9.03
2018-11-04T08:53:10.037Z,9.06
2018-11-04T08:54:10.035Z,9.19
2018-11-04T08:55:10.019Z,9.28
2018-11-04T08:56:10.013Z,9.37
2018-11-04T08:57:10.001Z,9.54
2018-11-04T08:58:10.001Z,9.66
2018-11-04T08:59:09.982Z,9.64
2018-11-04T09:00:10.091Z,9.74
2018-11-04T09:01:09.968Z,9.73
2018-11-04T09:02:09.955Z,9.84
2018-11-04T09:03:09.947Z,9.94
2018-11-04T09:04:09.943Z,9.91
2018-11-04T09:05:09.930Z,10.04
2018-11-04T09:06:09.925Z,9.97
2018-11-04T09:07:09.917Z,9.99
2018-11-04T09:08:09.908Z,10.12
2018-11-04T09:09:09.896Z,10.05
2018-11-04T09:10:09.888Z,9.97
2018-11-04T09:11:09.884Z,10.07
2018-11-04T09:12:09.870Z,9.98
2018-11-04T09:13:09.863Z,10.01
2018-11-04T09:14:09.869Z,10.01
2018-11-04T09:15:09.847Z,10.10
2018-11-04T09:16:09.838Z,10.09
2018-11-04T09:17:09.828Z,10.15
2018-11-04T09:18:09.825Z,10.15
2018-11-04T09:19:09.810Z,10.20
2018-11-04T09:20:09.803Z,10.23
2018-11-04T09:21:09.794Z,10.28
2018-11-04T09:22:09.824Z,10.33
2018-11-04T09:23:09.979Z,10.35
2018-11-04T09:24:09.768Z,10.37
2018-11-04T09:25:09.761Z,10.46
2018-11-04T09:26:09.757Z,10.51
2018-11-04T09:27:09.748Z,10.41
2018-11-04T09:28:09.736Z,10.56
2018-11-04T09:29:09.796Z,10.64
2018-11-04T09:30:09.719Z,10.68
2018-11-04T09:31:09.710Z,10.82
2018-11-04T09:33:09.695Z,10.99
2018-11-04T09:34:09.687Z,11.07
2018-11-04T09:35:09.967Z,11.15
2018-11-04T09:36:09.814Z,11.18
2018-11-04T09:37:09.665Z,11.23
2018-11-04T09:38:09.655Z,11.26
2018-11-04T09:39:09.648Z,11.36
2018-11-04T09:40:09.639Z,11.43
2018-11-04T09:41:09.633Z,11.52
2018-11-04T09:42:09.625Z,11.55
2018-11-04T09:43:09.617Z,11.54
2018-11-04T09:44:09.610Z,11.51
2018-11-04T09:45:09.605Z,11.54
2018-11-04T09:46:09.596Z,11.57
2018-11-04T09:47:09.591Z,11.81
2018-11-04T09:48:09.589Z,11.83
2018-11-04T09:49:09.576Z,12.00
2018-11-04T09:50:09.655Z,12.04
2018-11-04T09:51:09.562Z,12.18
2018-11-04T09:52:09.553Z,12.32
2018-11-04T09:53:09.546Z,12.57
2018-11-04T09:54:09.541Z,12.67
2018-11-04T09:55:09.534Z,12.78
2018-11-04T09:56:09.532Z,12.82
2018-11-04T09:57:09.523Z,13.05
2018-11-04T09:59:09.511Z,13.27
2018-11-04T10:00:09.511Z,13.23
2018-11-04T10:01:09.501Z,13.46
2018-11-04T10:02:09.497Z,13.54
2018-11-04T10:03:09.492Z,13.59
2018-11-04T10:04:09.486Z,13.68
2018-11-04T10:05:09.484Z,13.74
2018-11-04T10:06:09.476Z,13.89
2018-11-04T10:07:09.552Z,13.89
2018-11-04T10:08:09.466Z,14.03
2018-11-04T10:09:09.473Z,14.25
2018-11-04T10:10:09.463Z,14.65
2018-11-04T10:11:09.463Z,15.09
2018-11-04T10:12:09.451Z,15.44
2018-11-04T10:13:09.454Z,15.64
2018-11-04T10:14:09.448Z,16.05
2018-11-04T10:15:09.448Z,16.17
2018-11-04T10:16:09.496Z,16.38
2018-11-04T10:17:09.444Z,16.31
2018-11-04T10:18:09.444Z,16.23
2018-11-04T10:19:09.625Z,16.09
2018-11-04T10:20:09.884Z,15.94
2018-11-04T10:21:10.095Z,15.79
2018-11-04T10:22:09.439Z,15.77
2018-11-04T10:23:09.439Z,16.01
2018-11-04T10:24:09.436Z,16.29
2018-11-04T10:25:09.436Z,16.42
2018-11-04T10:26:09.438Z,16.36
2018-11-04T10:27:09.434Z,16.33
2018-11-04T10:28:09.434Z,16.23
2018-11-04T10:29:09.438Z,16.15
2018-11-04T10:30:09.455Z,16.08
2018-11-04T10:31:09.431Z,16.28
2018-11-04T10:32:09.435Z,16.26
2018-11-04T10:33:09.431Z,16.26
2018-11-04T10:34:09.433Z,16.09
2018-11-04T10:35:09.428Z,16.23
2018-11-04T10:36:09.457Z,16.53
2018-11-04T10:37:09.465Z,16.75
2018-11-04T10:38:09.428Z,16.66
2018-11-04T10:39:09.425Z,16.96
2018-11-04T10:40:09.426Z,16.53
2018-11-04T10:41:09.429Z,16.28
2018-11-04T10:42:09.456Z,16.12
2018-11-04T10:43:09.424Z,16.16
2018-11-04T10:44:09.421Z,16.23
2018-11-04T10:45:09.420Z,16.17
2018-11-04T10:46:09.421Z,16.29
2018-11-04T10:47:09.418Z,16.36
2018-11-04T10:48:09.416Z,16.31
2018-11-04T10:49:09.422Z,16.43
2018-11-04T10:50:09.420Z,16.42
2018-11-04T10:51:09.410Z,16.43
2018-11-04T10:52:09.408Z,16.66
2018-11-04T10:53:09.405Z,16.76
2018-11-04T10:54:09.406Z,16.86
2018-11-04T10:55:09.398Z,16.81
2018-11-04T10:56:09.397Z,16.75
2018-11-04T10:57:09.395Z,16.79
2018-11-04T10:58:09.393Z,16.87
2018-11-04T10:59:09.392Z,17.01
2018-11-04T11:00:09.388Z,17.08
2018-11-04T11:01:09.389Z,17.24
2018-11-04T11:02:09.386Z,17.45
2018-11-04T11:03:09.381Z,17.39
2018-11-04T11:04:09.378Z,17.70
2018-11-04T11:05:09.381Z,17.64
2018-11-04T11:06:09.372Z,17.78
2018-11-04T11:08:09.369Z,17.71
2018-11-04T11:09:09.372Z,17.83
2018-11-04T11:10:09.366Z,18.00
2018-11-04T11:11:09.453Z,18.10
2018-11-04T11:12:09.411Z,17.95
2018-11-04T11:13:09.357Z,18.08
2018-11-04T11:14:09.355Z,17.78
2018-11-04T11:15:09.355Z,17.76
2018-11-04T11:16:09.353Z,17.48
2018-11-04T11:17:09.349Z,17.67
2018-11-04T11:18:09.353Z,17.68
2018-11-04T11:19:09.343Z,17.56
2018-11-04T11:20:09.340Z,17.59
2018-11-04T11:21:09.346Z,17.56
2018-11-04T11:22:09.335Z,17.60
2018-11-04T11:23:09.470Z,17.46
2018-11-04T11:24:09.530Z,17.41
2018-11-04T11:25:09.328Z,17.48
2018-11-04T11:26:09.327Z,17.68
2018-11-04T11:27:09.322Z,17.90
2018-11-04T11:28:09.320Z,17.72
2018-11-04T11:29:09.317Z,17.38
2018-11-04T11:30:09.360Z,17.16
2018-11-04T11:31:09.311Z,17.22
2018-11-04T11:32:09.308Z,17.30
2018-11-04T11:33:09.309Z,17.20
2018-11-04T11:34:09.308Z,17.09
2018-11-04T11:35:09.301Z,17.27
2018-11-04T11:36:09.298Z,17.33
2018-11-04T11:37:09.304Z,17.38
2018-11-04T11:38:09.304Z,17.52
2018-11-04T11:39:09.291Z,17.64
2018-11-04T11:40:09.288Z,17.60
2018-11-04T11:41:09.285Z,17.85
2018-11-04T11:42:09.286Z,17.83
2018-11-04T11:43:09.285Z,17.92
2018-11-04T11:44:09.281Z,17.90
2018-11-04T11:45:09.278Z,17.90
2018-11-04T11:46:09.476Z,18.07
2018-11-04T11:47:09.273Z,18.08
2018-11-04T11:48:09.271Z,18.05
2018-11-04T11:49:09.270Z,18.19
2018-11-04T11:50:09.268Z,18.38
2018-11-04T11:51:09.270Z,18.29
2018-11-04T11:52:09.466Z,18.13
2018-11-04T11:53:09.262Z,17.90
2018-11-04T11:54:09.263Z,17.89
2018-11-04T11:55:09.257Z,17.87
2018-11-04T11:56:09.460Z,17.78
2018-11-04T11:57:09.253Z,17.76
2018-11-04T11:58:09.249Z,17.83
2018-11-04T11:59:09.252Z,18.03
2018-11-04T12:00:09.246Z,18.10
2018-11-04T12:01:09.249Z,18.10
2018-11-04T12:02:09.264Z,17.98
2018-11-04T12:03:09.239Z,18.07
2018-11-04T12:04:09.242Z,18.26
2018-11-04T12:05:09.237Z,18.59
2018-11-04T12:06:09.436Z,18.77
2018-11-04T12:07:09.234Z,18.78
2018-11-04T12:08:09.230Z,18.81
2018-11-04T12:09:09.232Z,18.74
2018-11-04T12:10:09.233Z,18.93
2018-11-04T12:11:09.225Z,19.11
2018-11-04T12:12:09.224Z,19.18
2018-11-04T12:13:09.223Z,19.12
2018-11-04T12:14:09.224Z,18.90
2018-11-04T12:15:09.421Z,18.80
2018-11-04T12:16:09.221Z,18.84
2018-11-04T12:17:09.218Z,19.00
2018-11-04T12:18:09.218Z,18.92
2018-11-04T12:19:09.214Z,18.70
2018-11-04T12:20:09.212Z,18.70
2018-11-04T12:21:09.414Z,18.83
2018-11-04T12:22:09.209Z,18.90
2018-11-04T12:23:09.207Z,18.81
2018-11-04T12:24:09.210Z,18.81
2018-11-04T12:25:09.205Z,19.08
2018-11-04T12:26:09.204Z,19.26
2018-11-04T12:27:09.207Z,19.51
2018-11-04T12:28:09.201Z,19.49
2018-11-04T12:29:09.200Z,19.18
2018-11-04T12:30:09.200Z,19.15
2018-11-04T12:31:09.198Z,18.81
2018-11-04T12:32:09.196Z,18.55
2018-11-04T12:33:09.195Z,18.50
2018-11-04T12:34:09.192Z,18.77
2018-11-04T12:35:09.245Z,19.16
2018-11-04T12:36:09.192Z,19.27
2018-11-04T12:37:09.189Z,19.37
2018-11-04T12:38:09.185Z,19.64
2018-11-04T12:39:09.182Z,19.74
2018-11-04T12:40:09.182Z,19.59
2018-11-04T12:41:09.183Z,19.67
2018-11-04T12:42:09.182Z,19.79
2018-11-04T12:43:09.180Z,19.69
2018-11-04T12:44:09.175Z,19.66
2018-11-04T12:45:09.178Z,19.64
2018-11-04T12:46:09.175Z,19.81
2018-11-04T12:47:09.170Z,19.92
2018-11-04T12:48:09.198Z,19.84
2018-11-04T12:49:09.167Z,19.48
2018-11-04T12:50:09.166Z,19.44
2018-11-04T12:51:09.165Z,19.56
2018-11-04T12:52:09.421Z,19.41
2018-11-04T12:53:09.162Z,19.49
2018-11-04T12:54:09.161Z,19.51
2018-11-04T12:55:09.157Z,19.11
2018-11-04T12:56:09.155Z,18.78
2018-11-04T12:57:09.153Z,18.62
2018-11-04T12:58:09.151Z,18.47
2018-11-04T12:59:09.147Z,18.55
2018-11-04T13:00:09.145Z,18.73
2018-11-04T13:01:09.143Z,18.83
2018-11-04T13:02:09.213Z,18.96
2018-11-04T13:03:09.136Z,19.00
2018-11-04T13:04:09.136Z,18.89
2018-11-04T13:05:09.131Z,18.77
2018-11-04T13:06:09.129Z,18.74
2018-11-04T13:07:09.124Z,18.60
2018-11-04T13:08:09.121Z,18.50
2018-11-04T13:09:09.119Z,18.45
2018-11-04T13:10:09.144Z,18.56
2018-11-04T13:11:09.112Z,18.22
2018-11-04T13:12:09.109Z,18.08
2018-11-04T13:13:09.110Z,17.92
2018-11-04T13:14:09.106Z,18.04